sensor_id;sensor_type;location;lat;lon;timestamp;P1;durP1;ratioP1;P2;durP2;ratioP2
24102;SDS011;12278;53.058;9.028;2022-07-05T00:02:01;4.45;;;2.65;;
24102;SDS011;12278;53.058;9.028;2022-07-05T00:06:02;4.07;;;2.95;;
24102;SDS011;12278;53.058;9.028;2022-07-05T00:10:05;3.67;;;2.58;;
24102;SDS011;12278;53.058;9.028;2022-07-05T00:14:07;2.88;;;2.33;;
24102;SDS011;12278;53.058;9.028;2022-07-05T00:18:09;2.97;;;2.35;;
24102;SDS011;12278;53.058;9.028;2022-07-05T00:22:09;3.40;;;2.95;;
24102;SDS011;12278;53.058;9.028;2022-07-05T00:26:10;2.65;;;2.45;;
24102;SDS011;12278;53.058;9.028;2022-07-05T00:30:12;5.40;;;2.75;;
24102;SDS011;12278;53.058;9.028;2022-07-05T00:34:14;3.33;;;2.60;;
24102;SDS011;12278;53.058;9.028;2022-07-05T00:38:15;2.15;;;2.00;;
24102;SDS011;12278;53.058;9.028;2022-07-05T00:42:15;3.58;;;2.67;;
24102;SDS011;12278;53.058;9.028;2022-07-05T00:46:16;5.70;;;2.80;;
24102;SDS011;12278;53.058;9.028;2022-07-05T00:50:17;3.63;;;2.35;;
24102;SDS011;12278;53.058;9.028;2022-07-05T00:54:18;2.47;;;2.28;;
24102;SDS011;12278;53.058;9.028;2022-07-05T00:58:19;5.63;;;2.53;;
24102;SDS011;12278;53.058;9.028;2022-07-05T01:02:20;2.65;;;2.40;;
24102;SDS011;12278;53.058;9.028;2022-07-05T01:06:23;3.60;;;2.35;;
24102;SDS011;12278;53.058;9.028;2022-07-05T01:10:24;4.72;;;2.45;;
24102;SDS011;12278;53.058;9.028;2022-07-05T01:14:25;4.55;;;3.20;;
24102;SDS011;12278;53.058;9.028;2022-07-05T01:18:26;4.05;;;2.85;;
24102;SDS011;12278;53.058;9.028;2022-07-05T01:22:31;4.45;;;2.60;;
24102;SDS011;12278;53.058;9.028;2022-07-05T01:26:55;2.92;;;2.63;;
24102;SDS011;12278;53.058;9.028;2022-07-05T01:31:03;3.15;;;2.33;;
24102;SDS011;12278;53.058;9.028;2022-07-05T01:35:04;2.75;;;2.40;;
24102;SDS011;12278;53.058;9.028;2022-07-05T01:39:07;4.60;;;2.45;;
24102;SDS011;12278;53.058;9.028;2022-07-05T01:43:08;2.53;;;1.98;;
24102;SDS011;12278;53.058;9.028;2022-07-05T01:47:09;3.90;;;2.38;;
24102;SDS011;12278;53.058;9.028;2022-07-05T01:51:14;3.03;;;2.67;;
24102;SDS011;12278;53.058;9.028;2022-07-05T01:55:22;3.92;;;2.83;;
24102;SDS011;12278;53.058;9.028;2022-07-05T01:59:23;4.03;;;2.40;;
24102;SDS011;12278;53.058;9.028;2022-07-05T02:03:25;3.90;;;2.53;;
24102;SDS011;12278;53.058;9.028;2022-07-05T02:07:26;3.10;;;2.83;;
24102;SDS011;12278;53.058;9.028;2022-07-05T02:11:27;2.70;;;2.45;;
24102;SDS011;12278;53.058;9.028;2022-07-05T02:15:33;3.28;;;2.88;;
24102;SDS011;12278;53.058;9.028;2022-07-05T02:19:37;5.88;;;3.38;;
24102;SDS011;12278;53.058;9.028;2022-07-05T02:23:38;2.47;;;2.28;;
24102;SDS011;12278;53.058;9.028;2022-07-05T02:27:39;3.00;;;2.70;;
24102;SDS011;12278;53.058;9.028;2022-07-05T02:31:40;5.45;;;3.20;;
24102;SDS011;12278;53.058;9.028;2022-07-05T02:35:41;3.50;;;3.03;;
24102;SDS011;12278;53.058;9.028;2022-07-05T02:39:42;3.00;;;2.80;;
24102;SDS011;12278;53.058;9.028;2022-07-05T02:43:42;3.45;;;3.13;;
24102;SDS011;12278;53.058;9.028;2022-07-05T02:47:43;3.30;;;2.97;;
24102;SDS011;12278;53.058;9.028;2022-07-05T02:51:44;3.58;;;3.25;;
24102;SDS011;12278;53.058;9.028;2022-07-05T02:55:45;3.80;;;3.50;;
24102;SDS011;12278;53.058;9.028;2022-07-05T02:59:46;4.65;;;3.38;;
24102;SDS011;12278;53.058;9.028;2022-07-05T03:03:47;3.72;;;3.42;;
24102;SDS011;12278;53.058;9.028;2022-07-05T03:07:47;4.20;;;3.60;;
24102;SDS011;12278;53.058;9.028;2022-07-05T03:11:48;5.60;;;4.30;;
24102;SDS011;12278;53.058;9.028;2022-07-05T03:15:49;3.67;;;3.38;;
24102;SDS011;12278;53.058;9.028;2022-07-05T03:19:50;4.03;;;3.63;;
24102;SDS011;12278;53.058;9.028;2022-07-05T03:23:51;4.78;;;3.63;;
24102;SDS011;12278;53.058;9.028;2022-07-05T03:27:52;6.20;;;3.58;;
24102;SDS011;12278;53.058;9.028;2022-07-05T03:31:53;4.32;;;3.78;;
24102;SDS011;12278;53.058;9.028;2022-07-05T03:35:54;4.50;;;4.10;;
24102;SDS011;12278;53.058;9.028;2022-07-05T03:39:55;4.50;;;3.60;;
24102;SDS011;12278;53.058;9.028;2022-07-05T03:43:56;3.78;;;3.15;;
24102;SDS011;12278;53.058;9.028;2022-07-05T03:47:57;4.13;;;3.70;;
24102;SDS011;12278;53.058;9.028;2022-07-05T03:51:59;3.67;;;3.38;;
24102;SDS011;12278;53.058;9.028;2022-07-05T03:56:00;5.25;;;3.80;;
24102;SDS011;12278;53.058;9.028;2022-07-05T04:00:01;5.75;;;4.10;;
24102;SDS011;12278;53.058;9.028;2022-07-05T04:04:05;4.82;;;3.63;;
24102;SDS011;12278;53.058;9.028;2022-07-05T04:08:06;4.00;;;3.60;;
24102;SDS011;12278;53.058;9.028;2022-07-05T04:12:07;4.60;;;4.20;;
24102;SDS011;12278;53.058;9.028;2022-07-05T04:16:08;10.82;;;3.83;;
24102;SDS011;12278;53.058;9.028;2022-07-05T04:20:09;4.32;;;3.92;;
24102;SDS011;12278;53.058;9.028;2022-07-05T04:24:10;5.72;;;4.28;;
24102;SDS011;12278;53.058;9.028;2022-07-05T04:28:11;5.20;;;4.43;;
24102;SDS011;12278;53.058;9.028;2022-07-05T04:32:14;5.25;;;4.32;;
24102;SDS011;12278;53.058;9.028;2022-07-05T04:36:15;5.10;;;4.35;;
24102;SDS011;12278;53.058;9.028;2022-07-05T04:40:15;5.32;;;3.95;;
24102;SDS011;12278;53.058;9.028;2022-07-05T04:44:16;4.50;;;4.10;;
24102;SDS011;12278;53.058;9.028;2022-07-05T04:48:19;4.25;;;3.72;;
24102;SDS011;12278;53.058;9.028;2022-07-05T04:52:21;5.10;;;4.60;;
24102;SDS011;12278;53.058;9.028;2022-07-05T04:56:23;5.88;;;4.45;;
24102;SDS011;12278;53.058;9.028;2022-07-05T05:00:23;4.95;;;4.22;;
24102;SDS011;12278;53.058;9.028;2022-07-05T05:04:30;4.63;;;4.22;;
24102;SDS011;12278;53.058;9.028;2022-07-05T05:08:31;5.88;;;4.65;;
24102;SDS011;12278;53.058;9.028;2022-07-05T05:12:32;5.95;;;4.55;;
24102;SDS011;12278;53.058;9.028;2022-07-05T05:16:33;4.53;;;4.13;;
24102;SDS011;12278;53.058;9.028;2022-07-05T05:20:34;8.18;;;4.22;;
24102;SDS011;12278;53.058;9.028;2022-07-05T05:24:35;5.10;;;4.20;;
24102;SDS011;12278;53.058;9.028;2022-07-05T05:28:35;4.50;;;3.85;;
24102;SDS011;12278;53.058;9.028;2022-07-05T05:32:37;7.85;;;4.97;;
24102;SDS011;12278;53.058;9.028;2022-07-05T05:36:38;6.68;;;4.22;;
24102;SDS011;12278;53.058;9.028;2022-07-05T05:40:40;5.68;;;3.80;;
24102;SDS011;12278;53.058;9.028;2022-07-05T05:44:43;6.70;;;3.38;;
24102;SDS011;12278;53.058;9.028;2022-07-05T05:48:44;7.80;;;3.60;;
24102;SDS011;12278;53.058;9.028;2022-07-05T05:56:47;5.70;;;3.08;;
24102;SDS011;12278;53.058;9.028;2022-07-05T06:00:48;3.25;;;2.88;;
24102;SDS011;12278;53.058;9.028;2022-07-05T06:04:53;4.35;;;3.28;;
24102;SDS011;12278;53.058;9.028;2022-07-05T06:08:53;5.68;;;2.92;;
24102;SDS011;12278;53.058;9.028;2022-07-05T06:12:55;3.10;;;2.75;;
24102;SDS011;12278;53.058;9.028;2022-07-05T06:16:59;3.22;;;2.85;;
24102;SDS011;12278;53.058;9.028;2022-07-05T06:21:01;3.20;;;2.63;;
24102;SDS011;12278;53.058;9.028;2022-07-05T06:25:02;3.47;;;2.70;;
24102;SDS011;12278;53.058;9.028;2022-07-05T06:29:04;2.28;;;1.70;;
24102;SDS011;12278;53.058;9.028;2022-07-05T06:33:05;3.15;;;2.10;;
24102;SDS011;12278;53.058;9.028;2022-07-05T06:37:05;3.30;;;2.30;;
24102;SDS011;12278;53.058;9.028;2022-07-05T06:41:07;6.07;;;1.80;;
24102;SDS011;12278;53.058;9.028;2022-07-05T06:45:08;2.20;;;1.53;;
24102;SDS011;12278;53.058;9.028;2022-07-05T06:49:10;2.10;;;1.50;;
24102;SDS011;12278;53.058;9.028;2022-07-05T06:53:11;2.38;;;1.40;;
24102;SDS011;12278;53.058;9.028;2022-07-05T06:57:12;1.33;;;1.23;;
24102;SDS011;12278;53.058;9.028;2022-07-05T07:01:12;3.58;;;1.67;;
24102;SDS011;12278;53.058;9.028;2022-07-05T07:05:13;1.77;;;1.38;;
24102;SDS011;12278;53.058;9.028;2022-07-05T07:09:14;4.38;;;1.63;;
24102;SDS011;12278;53.058;9.028;2022-07-05T07:13:17;1.45;;;1.35;;
24102;SDS011;12278;53.058;9.028;2022-07-05T07:17:19;2.05;;;1.17;;
24102;SDS011;12278;53.058;9.028;2022-07-05T07:21:20;1.90;;;1.40;;
24102;SDS011;12278;53.058;9.028;2022-07-05T07:25:21;5.25;;;1.63;;
24102;SDS011;12278;53.058;9.028;2022-07-05T07:29:23;2.45;;;1.02;;
24102;SDS011;12278;53.058;9.028;2022-07-05T07:33:24;1.77;;;0.90;;
24102;SDS011;12278;53.058;9.028;2022-07-05T07:37:25;4.03;;;1.25;;
24102;SDS011;12278;53.058;9.028;2022-07-05T07:41:26;1.70;;;0.90;;
24102;SDS011;12278;53.058;9.028;2022-07-05T07:45:26;3.45;;;1.27;;
24102;SDS011;12278;53.058;9.028;2022-07-05T07:49:30;1.15;;;0.90;;
24102;SDS011;12278;53.058;9.028;2022-07-05T07:53:31;1.77;;;1.08;;
24102;SDS011;12278;53.058;9.028;2022-07-05T07:57:32;2.47;;;1.17;;
24102;SDS011;12278;53.058;9.028;2022-07-05T08:01:33;1.10;;;0.75;;
24102;SDS011;12278;53.058;9.028;2022-07-05T08:05:34;2.08;;;0.90;;
24102;SDS011;12278;53.058;9.028;2022-07-05T08:09:35;1.20;;;0.80;;
24102;SDS011;12278;53.058;9.028;2022-07-05T08:13:36;1.63;;;0.80;;
24102;SDS011;12278;53.058;9.028;2022-07-05T08:17:37;1.60;;;0.50;;
24102;SDS011;12278;53.058;9.028;2022-07-05T08:42:02;1.25;;;1.00;;
24102;SDS011;12278;53.058;9.028;2022-07-05T08:54:14;1.92;;;0.95;;
24102;SDS011;12278;53.058;9.028;2022-07-05T08:58:16;1.83;;;0.60;;
24102;SDS011;12278;53.058;9.028;2022-07-05T09:10:25;0.77;;;0.70;;
24102;SDS011;12278;53.058;9.028;2022-07-05T09:14:30;1.10;;;0.70;;
24102;SDS011;12278;53.058;9.028;2022-07-05T09:22:54;0.77;;;0.60;;
24102;SDS011;12278;53.058;9.028;2022-07-05T09:27:01;1.08;;;0.60;;
24102;SDS011;12278;53.058;9.028;2022-07-05T09:31:04;2.28;;;0.80;;
24102;SDS011;12278;53.058;9.028;2022-07-05T09:35:20;0.73;;;0.70;;
24102;SDS011;12278;53.058;9.028;2022-07-05T09:43:37;2.67;;;0.80;;
24102;SDS011;12278;53.058;9.028;2022-07-05T09:47:38;1.05;;;0.90;;
24102;SDS011;12278;53.058;9.028;2022-07-05T09:51:49;1.15;;;0.68;;
24102;SDS011;12278;53.058;9.028;2022-07-05T09:56:02;1.70;;;0.68;;
24102;SDS011;12278;53.058;9.028;2022-07-05T10:00:05;1.60;;;0.70;;
24102;SDS011;12278;53.058;9.028;2022-07-05T10:04:16;1.52;;;0.60;;
24102;SDS011;12278;53.058;9.028;2022-07-05T10:08:18;3.65;;;0.82;;
24102;SDS011;12278;53.058;9.028;2022-07-05T10:12:21;1.05;;;0.73;;
24102;SDS011;12278;53.058;9.028;2022-07-05T10:16:22;1.08;;;0.75;;
24102;SDS011;12278;53.058;9.028;2022-07-05T10:20:25;1.83;;;0.55;;
24102;SDS011;12278;53.058;9.028;2022-07-05T10:24:36;2.58;;;1.20;;
24102;SDS011;12278;53.058;9.028;2022-07-05T10:28:39;0.73;;;0.73;;
24102;SDS011;12278;53.058;9.028;2022-07-05T10:32:44;2.53;;;0.70;;
24102;SDS011;12278;53.058;9.028;2022-07-05T10:49:08;1.88;;;0.90;;
24102;SDS011;12278;53.058;9.028;2022-07-05T10:53:21;1.20;;;0.90;;
24102;SDS011;12278;53.058;9.028;2022-07-05T10:57:25;2.22;;;0.70;;
24102;SDS011;12278;53.058;9.028;2022-07-05T11:05:32;2.67;;;1.48;;
24102;SDS011;12278;53.058;9.028;2022-07-05T11:09:35;4.97;;;1.20;;
24102;SDS011;12278;53.058;9.028;2022-07-05T11:13:37;1.50;;;1.10;;
24102;SDS011;12278;53.058;9.028;2022-07-05T11:17:41;2.70;;;0.90;;
24102;SDS011;12278;53.058;9.028;2022-07-05T11:22:03;1.45;;;0.90;;
24102;SDS011;12278;53.058;9.028;2022-07-05T11:26:07;2.85;;;0.98;;
24102;SDS011;12278;53.058;9.028;2022-07-05T11:30:21;2.97;;;1.35;;
24102;SDS011;12278;53.058;9.028;2022-07-05T11:34:31;3.45;;;1.30;;
24102;SDS011;12278;53.058;9.028;2022-07-05T11:39:05;3.42;;;1.05;;
24102;SDS011;12278;53.058;9.028;2022-07-05T11:43:13;4.45;;;1.60;;
24102;SDS011;12278;53.058;9.028;2022-07-05T11:47:14;1.52;;;1.08;;
24102;SDS011;12278;53.058;9.028;2022-07-05T11:51:19;1.73;;;0.85;;
24102;SDS011;12278;53.058;9.028;2022-07-05T11:55:20;1.80;;;0.98;;
24102;SDS011;12278;53.058;9.028;2022-07-05T11:59:24;3.75;;;1.10;;
24102;SDS011;12278;53.058;9.028;2022-07-05T12:03:27;3.22;;;1.23;;
24102;SDS011;12278;53.058;9.028;2022-07-05T12:07:31;1.60;;;1.15;;
24102;SDS011;12278;53.058;9.028;2022-07-05T12:11:34;1.08;;;0.80;;
24102;SDS011;12278;53.058;9.028;2022-07-05T12:16:00;2.75;;;1.20;;
24102;SDS011;12278;53.058;9.028;2022-07-05T12:20:01;2.55;;;1.05;;
24102;SDS011;12278;53.058;9.028;2022-07-05T12:24:07;2.40;;;0.98;;
24102;SDS011;12278;53.058;9.028;2022-07-05T12:28:08;1.67;;;1.00;;
24102;SDS011;12278;53.058;9.028;2022-07-05T12:32:11;0.85;;;0.80;;
24102;SDS011;12278;53.058;9.028;2022-07-05T12:36:13;3.40;;;0.88;;
24102;SDS011;12278;53.058;9.028;2022-07-05T12:40:16;3.42;;;0.80;;
24102;SDS011;12278;53.058;9.028;2022-07-05T12:44:23;1.25;;;1.05;;
24102;SDS011;12278;53.058;9.028;2022-07-05T12:48:31;1.67;;;0.90;;
24102;SDS011;12278;53.058;9.028;2022-07-05T12:52:32;1.33;;;0.60;;
24102;SDS011;12278;53.058;9.028;2022-07-05T12:56:34;3.63;;;0.98;;
24102;SDS011;12278;53.058;9.028;2022-07-05T13:00:53;1.08;;;0.63;;
24102;SDS011;12278;53.058;9.028;2022-07-05T13:04:54;1.48;;;0.73;;
24102;SDS011;12278;53.058;9.028;2022-07-05T13:09:00;2.10;;;0.95;;
24102;SDS011;12278;53.058;9.028;2022-07-05T13:13:01;3.08;;;1.10;;
24102;SDS011;12278;53.058;9.028;2022-07-05T13:17:08;2.97;;;1.00;;
24102;SDS011;12278;53.058;9.028;2022-07-05T13:21:12;1.90;;;1.00;;
24102;SDS011;12278;53.058;9.028;2022-07-05T13:25:13;1.90;;;1.02;;
24102;SDS011;12278;53.058;9.028;2022-07-05T13:29:14;1.15;;;1.08;;
24102;SDS011;12278;53.058;9.028;2022-07-05T13:33:15;2.50;;;1.08;;
24102;SDS011;12278;53.058;9.028;2022-07-05T13:37:16;4.05;;;1.10;;
24102;SDS011;12278;53.058;9.028;2022-07-05T13:41:17;1.67;;;1.50;;
24102;SDS011;12278;53.058;9.028;2022-07-05T13:45:18;2.97;;;1.20;;
24102;SDS011;12278;53.058;9.028;2022-07-05T13:49:18;0.80;;;0.80;;
24102;SDS011;12278;53.058;9.028;2022-07-05T13:53:21;3.25;;;1.00;;
24102;SDS011;12278;53.058;9.028;2022-07-05T13:57:22;2.58;;;1.20;;
24102;SDS011;12278;53.058;9.028;2022-07-05T14:01:23;2.08;;;1.17;;
24102;SDS011;12278;53.058;9.028;2022-07-05T14:05:27;2.95;;;1.27;;
24102;SDS011;12278;53.058;9.028;2022-07-05T14:09:27;3.88;;;1.83;;
24102;SDS011;12278;53.058;9.028;2022-07-05T14:13:28;3.63;;;1.30;;
24102;SDS011;12278;53.058;9.028;2022-07-05T14:17:29;2.50;;;1.00;;
24102;SDS011;12278;53.058;9.028;2022-07-05T14:21:30;2.63;;;1.25;;
24102;SDS011;12278;53.058;9.028;2022-07-05T14:25:31;2.17;;;1.20;;
24102;SDS011;12278;53.058;9.028;2022-07-05T14:29:32;2.05;;;0.93;;
24102;SDS011;12278;53.058;9.028;2022-07-05T14:33:33;1.15;;;0.60;;
24102;SDS011;12278;53.058;9.028;2022-07-05T14:37:36;3.90;;;1.10;;
24102;SDS011;12278;53.058;9.028;2022-07-05T14:41:36;1.55;;;0.82;;
24102;SDS011;12278;53.058;9.028;2022-07-05T14:45:37;1.95;;;1.10;;
24102;SDS011;12278;53.058;9.028;2022-07-05T14:49:38;1.83;;;1.08;;
24102;SDS011;12278;53.058;9.028;2022-07-05T14:53:39;1.88;;;0.63;;
24102;SDS011;12278;53.058;9.028;2022-07-05T14:57:42;1.67;;;0.50;;
24102;SDS011;12278;53.058;9.028;2022-07-05T15:01:43;1.88;;;1.00;;
24102;SDS011;12278;53.058;9.028;2022-07-05T15:05:44;3.95;;;1.05;;
24102;SDS011;12278;53.058;9.028;2022-07-05T15:09:45;3.15;;;1.05;;
24102;SDS011;12278;53.058;9.028;2022-07-05T15:13:48;3.65;;;1.67;;
24102;SDS011;12278;53.058;9.028;2022-07-05T15:17:51;1.77;;;1.05;;
24102;SDS011;12278;53.058;9.028;2022-07-05T15:21:52;3.72;;;1.08;;
24102;SDS011;12278;53.058;9.028;2022-07-05T15:25:53;3.47;;;1.30;;
24102;SDS011;12278;53.058;9.028;2022-07-05T15:29:55;2.40;;;1.10;;
24102;SDS011;12278;53.058;9.028;2022-07-05T15:33:56;3.72;;;1.20;;
24102;SDS011;12278;53.058;9.028;2022-07-05T15:37:56;3.88;;;1.15;;
24102;SDS011;12278;53.058;9.028;2022-07-05T15:41:58;2.00;;;0.95;;
24102;SDS011;12278;53.058;9.028;2022-07-05T15:46:01;2.00;;;0.95;;
24102;SDS011;12278;53.058;9.028;2022-07-05T15:50:01;2.60;;;1.25;;
24102;SDS011;12278;53.058;9.028;2022-07-05T15:54:04;3.40;;;1.15;;
24102;SDS011;12278;53.058;9.028;2022-07-05T15:58:04;2.33;;;1.33;;
24102;SDS011;12278;53.058;9.028;2022-07-05T16:02:06;3.92;;;1.08;;
24102;SDS011;12278;53.058;9.028;2022-07-05T16:06:07;2.58;;;1.05;;
24102;SDS011;12278;53.058;9.028;2022-07-05T16:10:08;6.32;;;1.80;;
24102;SDS011;12278;53.058;9.028;2022-07-05T16:14:09;1.40;;;0.65;;
24102;SDS011;12278;53.058;9.028;2022-07-05T16:18:10;5.15;;;1.20;;
24102;SDS011;12278;53.058;9.028;2022-07-05T16:22:11;3.08;;;1.00;;
24102;SDS011;12278;53.058;9.028;2022-07-05T16:26:12;2.85;;;1.08;;
24102;SDS011;12278;53.058;9.028;2022-07-05T16:30:15;3.35;;;0.90;;
24102;SDS011;12278;53.058;9.028;2022-07-05T16:34:16;4.60;;;1.13;;
24102;SDS011;12278;53.058;9.028;2022-07-05T16:38:18;1.52;;;0.90;;
24102;SDS011;12278;53.058;9.028;2022-07-05T16:42:18;2.78;;;1.00;;
24102;SDS011;12278;53.058;9.028;2022-07-05T16:46:19;5.10;;;1.38;;
24102;SDS011;12278;53.058;9.028;2022-07-05T16:50:21;2.57;;;0.80;;
24102;SDS011;12278;53.058;9.028;2022-07-05T16:54:22;3.97;;;1.00;;
24102;SDS011;12278;53.058;9.028;2022-07-05T16:58:22;2.70;;;1.10;;
24102;SDS011;12278;53.058;9.028;2022-07-05T17:02:23;1.73;;;0.95;;
24102;SDS011;12278;53.058;9.028;2022-07-05T17:06:25;3.28;;;1.45;;
24102;SDS011;12278;53.058;9.028;2022-07-05T17:10:26;1.85;;;1.23;;
24102;SDS011;12278;53.058;9.028;2022-07-05T17:14:27;3.05;;;1.58;;
24102;SDS011;12278;53.058;9.028;2022-07-05T17:18:28;3.03;;;1.02;;
24102;SDS011;12278;53.058;9.028;2022-07-05T17:22:30;1.63;;;0.93;;
24102;SDS011;12278;53.058;9.028;2022-07-05T17:26:31;5.93;;;1.13;;
24102;SDS011;12278;53.058;9.028;2022-07-05T17:30:32;1.52;;;1.00;;
24102;SDS011;12278;53.058;9.028;2022-07-05T17:34:33;1.50;;;1.00;;
24102;SDS011;12278;53.058;9.028;2022-07-05T17:38:34;1.90;;;0.60;;
24102;SDS011;12278;53.058;9.028;2022-07-05T17:42:36;1.23;;;0.98;;
24102;SDS011;12278;53.058;9.028;2022-07-05T17:46:37;2.67;;;0.93;;
24102;SDS011;12278;53.058;9.028;2022-07-05T17:50:39;2.67;;;1.20;;
24102;SDS011;12278;53.058;9.028;2022-07-05T17:54:40;1.70;;;1.60;;
24102;SDS011;12278;53.058;9.028;2022-07-05T17:58:40;2.92;;;1.10;;
24102;SDS011;12278;53.058;9.028;2022-07-05T18:02:42;2.42;;;1.33;;
24102;SDS011;12278;53.058;9.028;2022-07-05T18:06:43;2.35;;;1.30;;
24102;SDS011;12278;53.058;9.028;2022-07-05T18:10:44;1.20;;;1.10;;
24102;SDS011;12278;53.058;9.028;2022-07-05T18:14:46;3.17;;;1.83;;
24102;SDS011;12278;53.058;9.028;2022-07-05T18:18:47;3.17;;;1.50;;
24102;SDS011;12278;53.058;9.028;2022-07-05T18:22:49;3.00;;;1.27;;
24102;SDS011;12278;53.058;9.028;2022-07-05T18:26:50;2.92;;;1.35;;
24102;SDS011;12278;53.058;9.028;2022-07-05T18:30:51;3.53;;;1.33;;
24102;SDS011;12278;53.058;9.028;2022-07-05T18:34:52;3.28;;;1.23;;
24102;SDS011;12278;53.058;9.028;2022-07-05T18:38:53;33.15;;;2.72;;
24102;SDS011;12278;53.058;9.028;2022-07-05T18:42:54;3.58;;;1.13;;
24102;SDS011;12278;53.058;9.028;2022-07-05T18:46:55;3.47;;;1.48;;
24102;SDS011;12278;53.058;9.028;2022-07-05T18:50:56;1.80;;;1.15;;
24102;SDS011;12278;53.058;9.028;2022-07-05T18:54:58;2.63;;;1.15;;
24102;SDS011;12278;53.058;9.028;2022-07-05T18:58:58;2.88;;;1.20;;
24102;SDS011;12278;53.058;9.028;2022-07-05T19:03:00;2.40;;;1.38;;
24102;SDS011;12278;53.058;9.028;2022-07-05T19:07:00;3.00;;;1.40;;
24102;SDS011;12278;53.058;9.028;2022-07-05T19:11:20;3.92;;;1.30;;
24102;SDS011;12278;53.058;9.028;2022-07-05T19:15:39;3.97;;;1.20;;
24102;SDS011;12278;53.058;9.028;2022-07-05T19:19:40;2.65;;;1.42;;
24102;SDS011;12278;53.058;9.028;2022-07-05T19:23:41;4.15;;;1.30;;
24102;SDS011;12278;53.058;9.028;2022-07-05T19:27:42;2.83;;;1.05;;
24102;SDS011;12278;53.058;9.028;2022-07-05T19:31:43;5.03;;;1.00;;
24102;SDS011;12278;53.058;9.028;2022-07-05T19:35:44;3.67;;;1.40;;
24102;SDS011;12278;53.058;9.028;2022-07-05T19:39:45;1.33;;;1.08;;
24102;SDS011;12278;53.058;9.028;2022-07-05T19:43:46;3.17;;;1.15;;
24102;SDS011;12278;53.058;9.028;2022-07-05T19:47:47;2.10;;;1.10;;
24102;SDS011;12278;53.058;9.028;2022-07-05T19:51:49;2.83;;;1.40;;
24102;SDS011;12278;53.058;9.028;2022-07-05T19:55:50;1.65;;;1.00;;
24102;SDS011;12278;53.058;9.028;2022-07-05T19:59:51;1.95;;;0.98;;
24102;SDS011;12278;53.058;9.028;2022-07-05T20:03:58;4.47;;;1.13;;
24102;SDS011;12278;53.058;9.028;2022-07-05T20:08:00;2.45;;;0.95;;
24102;SDS011;12278;53.058;9.028;2022-07-05T20:12:02;1.27;;;1.17;;
24102;SDS011;12278;53.058;9.028;2022-07-05T20:16:05;2.30;;;1.40;;
24102;SDS011;12278;53.058;9.028;2022-07-05T20:20:08;5.50;;;1.48;;
24102;SDS011;12278;53.058;9.028;2022-07-05T20:24:10;1.70;;;0.98;;
24102;SDS011;12278;53.058;9.028;2022-07-05T20:28:13;2.40;;;1.05;;
24102;SDS011;12278;53.058;9.028;2022-07-05T20:32:15;3.67;;;1.45;;
24102;SDS011;12278;53.058;9.028;2022-07-05T20:36:16;3.55;;;1.30;;
24102;SDS011;12278;53.058;9.028;2022-07-05T20:40:17;3.03;;;1.15;;
24102;SDS011;12278;53.058;9.028;2022-07-05T20:44:17;4.15;;;1.27;;
24102;SDS011;12278;53.058;9.028;2022-07-05T20:48:18;2.65;;;1.58;;
24102;SDS011;12278;53.058;9.028;2022-07-05T20:52:21;2.20;;;0.98;;
24102;SDS011;12278;53.058;9.028;2022-07-05T20:56:23;2.95;;;1.50;;
24102;SDS011;12278;53.058;9.028;2022-07-05T21:00:24;1.48;;;1.10;;
24102;SDS011;12278;53.058;9.028;2022-07-05T21:04:24;2.40;;;1.20;;
24102;SDS011;12278;53.058;9.028;2022-07-05T21:08:25;2.40;;;0.90;;
24102;SDS011;12278;53.058;9.028;2022-07-05T21:12:26;8.20;;;1.80;;
24102;SDS011;12278;53.058;9.028;2022-07-05T21:16:27;1.80;;;1.17;;
24102;SDS011;12278;53.058;9.028;2022-07-05T21:20:29;2.42;;;1.00;;
24102;SDS011;12278;53.058;9.028;2022-07-05T21:24:31;1.88;;;1.50;;
24102;SDS011;12278;53.058;9.028;2022-07-05T21:28:34;2.95;;;1.48;;
24102;SDS011;12278;53.058;9.028;2022-07-05T21:32:35;4.55;;;1.40;;
24102;SDS011;12278;53.058;9.028;2022-07-05T21:36:35;6.00;;;1.60;;
24102;SDS011;12278;53.058;9.028;2022-07-05T21:40:37;3.95;;;1.67;;
24102;SDS011;12278;53.058;9.028;2022-07-05T21:44:38;5.85;;;1.52;;
24102;SDS011;12278;53.058;9.028;2022-07-05T21:48:39;3.60;;;1.27;;
24102;SDS011;12278;53.058;9.028;2022-07-05T21:52:41;2.70;;;1.30;;
24102;SDS011;12278;53.058;9.028;2022-07-05T21:56:42;4.47;;;2.22;;
24102;SDS011;12278;53.058;9.028;2022-07-05T22:00:42;2.35;;;1.40;;
24102;SDS011;12278;53.058;9.028;2022-07-05T22:05:01;4.22;;;1.33;;
24102;SDS011;12278;53.058;9.028;2022-07-05T22:09:02;6.90;;;2.20;;
24102;SDS011;12278;53.058;9.028;2022-07-05T22:13:03;4.70;;;1.42;;
24102;SDS011;12278;53.058;9.028;2022-07-05T22:17:04;3.25;;;1.30;;
24102;SDS011;12278;53.058;9.028;2022-07-05T22:21:05;3.58;;;1.65;;
24102;SDS011;12278;53.058;9.028;2022-07-05T22:25:06;5.07;;;1.60;;
24102;SDS011;12278;53.058;9.028;2022-07-05T22:29:07;4.75;;;1.65;;
24102;SDS011;12278;53.058;9.028;2022-07-05T22:33:08;1.67;;;1.45;;
24102;SDS011;12278;53.058;9.028;2022-07-05T22:37:09;1.52;;;1.42;;
24102;SDS011;12278;53.058;9.028;2022-07-05T22:41:10;1.50;;;1.40;;
24102;SDS011;12278;53.058;9.028;2022-07-05T22:45:10;1.65;;;1.30;;
24102;SDS011;12278;53.058;9.028;2022-07-05T22:49:11;5.75;;;1.65;;
24102;SDS011;12278;53.058;9.028;2022-07-05T22:53:14;2.65;;;1.33;;
24102;SDS011;12278;53.058;9.028;2022-07-05T22:57:15;2.13;;;1.17;;
24102;SDS011;12278;53.058;9.028;2022-07-05T23:01:15;4.18;;;1.55;;
24102;SDS011;12278;53.058;9.028;2022-07-05T23:05:16;6.00;;;1.90;;
24102;SDS011;12278;53.058;9.028;2022-07-05T23:09:17;1.45;;;1.10;;
24102;SDS011;12278;53.058;9.028;2022-07-05T23:13:18;3.60;;;1.55;;
24102;SDS011;12278;53.058;9.028;2022-07-05T23:17:19;3.25;;;1.45;;
24102;SDS011;12278;53.058;9.028;2022-07-05T23:21:20;2.50;;;1.65;;
24102;SDS011;12278;53.058;9.028;2022-07-05T23:25:21;2.38;;;1.35;;
24102;SDS011;12278;53.058;9.028;2022-07-05T23:29:21;3.03;;;1.40;;
24102;SDS011;12278;53.058;9.028;2022-07-05T23:33:22;3.72;;;1.40;;
24102;SDS011;12278;53.058;9.028;2022-07-05T23:37:23;4.45;;;1.67;;
24102;SDS011;12278;53.058;9.028;2022-07-05T23:41:24;3.35;;;1.60;;
24102;SDS011;12278;53.058;9.028;2022-07-05T23:45:25;3.22;;;1.60;;
24102;SDS011;12278;53.058;9.028;2022-07-05T23:49:26;2.60;;;1.38;;
24102;SDS011;12278;53.058;9.028;2022-07-05T23:53:26;2.65;;;1.60;;
24102;SDS011;12278;53.058;9.028;2022-07-05T23:57:27;2.38;;;1.48;;
